createdAt,value
2017-12-20T00:00:20.487Z,9.42
2017-12-20T00:02:48.849Z,9.50
2017-12-20T00:05:17.217Z,9.57
2017-12-20T00:07:45.548Z,9.55
2017-12-20T00:10:14.207Z,9.77
2017-12-20T00:12:42.571Z,9.79
2017-12-20T00:15:10.919Z,9.55
2017-12-20T00:17:39.267Z,9.76
2017-12-20T00:20:07.603Z,9.63
2017-12-20T00:22:35.962Z,9.57
2017-12-20T00:25:04.333Z,9.49
2017-12-20T00:27:33.440Z,9.48
2017-12-20T00:30:01.814Z,9.50
2017-12-20T00:32:30.769Z,9.42
2017-12-20T00:34:59.102Z,9.46
2017-12-20T00:37:28.967Z,9.52
2017-12-20T00:39:57.338Z,9.56
2017-12-20T00:42:26.441Z,9.59
2017-12-20T00:44:54.824Z,9.58
2017-12-20T00:47:23.189Z,9.61
2017-12-20T00:49:52.319Z,9.51
2017-12-20T00:52:20.667Z,9.50
2017-12-20T00:54:50.234Z,9.44
2017-12-20T00:57:18.597Z,9.57
2017-12-20T00:59:46.945Z,9.63
2017-12-20T01:02:15.373Z,9.71
2017-12-20T01:04:43.747Z,9.79
2017-12-20T01:07:12.057Z,9.68
2017-12-20T01:09:41.234Z,9.67
2017-12-20T01:12:09.561Z,9.44
2017-12-20T01:14:37.952Z,9.38
2017-12-20T01:17:06.492Z,9.45
2017-12-20T01:19:35.619Z,9.43
2017-12-20T01:22:04.008Z,9.39
2017-12-20T01:24:32.376Z,9.39
2017-12-20T01:27:00.768Z,9.37
2017-12-20T01:29:29.145Z,9.32
2017-12-20T01:31:57.522Z,9.28
2017-12-20T01:34:25.867Z,9.16
2017-12-20T01:36:54.254Z,9.20
2017-12-20T01:39:24.046Z,9.17
2017-12-20T01:41:52.383Z,9.11
2017-12-20T01:44:20.752Z,9.07
2017-12-20T01:46:49.328Z,9.16
2017-12-20T01:49:17.683Z,9.23
2017-12-20T01:51:46.777Z,9.16
2017-12-20T01:54:15.900Z,9.14
2017-12-20T01:56:44.252Z,9.28
2017-12-20T01:59:13.339Z,9.38
2017-12-20T02:02:02.254Z,9.28
2017-12-20T02:04:30.609Z,9.37
2017-12-20T02:06:58.913Z,9.42
2017-12-20T02:09:27.252Z,9.44
2017-12-20T02:11:56.332Z,9.48
2017-12-20T02:14:24.653Z,9.45
2017-12-20T02:16:53.048Z,9.42
2017-12-20T02:19:21.359Z,9.41
2017-12-20T02:21:49.742Z,9.47
2017-12-20T02:24:18.419Z,9.35
2017-12-20T02:26:46.762Z,9.31
2017-12-20T02:29:15.082Z,9.18
2017-12-20T02:31:43.467Z,9.16
2017-12-20T02:34:11.821Z,9.22
2017-12-20T02:36:40.922Z,9.40
2017-12-20T02:39:09.300Z,9.44
2017-12-20T02:41:37.670Z,9.55
2017-12-20T02:44:06.018Z,9.47
2017-12-20T02:46:34.556Z,9.27
2017-12-20T02:49:02.907Z,9.24
2017-12-20T02:51:31.221Z,9.26
2017-12-20T02:54:00.048Z,9.24
2017-12-20T02:56:28.367Z,9.13
2017-12-20T02:58:57.466Z,9.01
2017-12-20T03:01:25.824Z,9.13
2017-12-20T03:03:54.163Z,9.21
2017-12-20T03:06:22.519Z,9.30
2017-12-20T03:08:51.137Z,9.16
2017-12-20T03:11:19.476Z,8.80
2017-12-20T03:13:47.822Z,8.85
2017-12-20T03:16:16.242Z,8.82
2017-12-20T03:18:44.610Z,8.86
2017-12-20T03:21:13.029Z,8.93
2017-12-20T03:23:41.405Z,9.03
2017-12-20T03:26:15.581Z,9.13
2017-12-20T03:28:44.354Z,9.00
2017-12-20T03:31:12.753Z,9.20
2017-12-20T03:33:41.097Z,9.22
2017-12-20T03:36:15.216Z,9.24
2017-12-20T03:38:44.141Z,9.13
2017-12-20T03:41:12.597Z,9.11
2017-12-20T03:43:40.995Z,9.13
2017-12-20T03:46:10.170Z,8.81
2017-12-20T03:48:38.560Z,8.92
2017-12-20T03:51:07.257Z,9.11
2017-12-20T03:53:36.380Z,8.72
2017-12-20T03:56:05.541Z,9.05
2017-12-20T03:58:33.987Z,9.12
2017-12-20T04:01:11.286Z,9.10
2017-12-20T04:03:39.657Z,9.35
2017-12-20T04:06:08.001Z,9.37
2017-12-20T04:08:37.092Z,9.52
2017-12-20T04:11:05.652Z,9.67
2017-12-20T04:13:34.016Z,9.65
2017-12-20T04:16:02.388Z,9.58
2017-12-20T04:18:30.751Z,9.51
2017-12-20T04:20:59.087Z,9.55
2017-12-20T04:23:27.419Z,9.54
2017-12-20T04:25:55.816Z,9.58
2017-12-20T04:28:24.170Z,9.67
2017-12-20T04:30:52.546Z,9.68
2017-12-20T04:33:21.216Z,9.63
2017-12-20T04:35:49.637Z,9.58
2017-12-20T04:38:18.063Z,9.44
2017-12-20T04:40:47.249Z,9.43
2017-12-20T04:43:15.588Z,9.41
2017-12-20T04:45:44.040Z,9.32
2017-12-20T04:48:12.484Z,9.29
2017-12-20T04:50:40.838Z,9.20
2017-12-20T04:53:09.178Z,9.17
2017-12-20T04:55:37.612Z,9.21
2017-12-20T04:58:05.949Z,9.16
2017-12-20T05:00:34.307Z,9.21
2017-12-20T05:03:02.711Z,9.19
2017-12-20T05:05:31.112Z,9.20
2017-12-20T05:07:59.495Z,9.31
2017-12-20T05:10:27.902Z,9.40
2017-12-20T05:12:56.217Z,9.22
2017-12-20T05:15:25.318Z,9.10
2017-12-20T05:17:54.046Z,8.97
2017-12-20T05:20:22.390Z,8.81
2017-12-20T05:22:50.739Z,8.90
2017-12-20T05:25:19.863Z,9.02
2017-12-20T05:27:48.378Z,8.90
2017-12-20T05:30:16.685Z,8.83
2017-12-20T05:32:45.028Z,8.88
2017-12-20T05:35:13.364Z,8.83
2017-12-20T05:37:41.716Z,8.90
2017-12-20T05:40:10.242Z,9.02
2017-12-20T05:42:38.571Z,8.78
2017-12-20T05:45:06.916Z,9.07
2017-12-20T05:47:35.290Z,9.18
2017-12-20T05:50:03.638Z,9.00
2017-12-20T05:52:31.996Z,9.02
2017-12-20T05:55:00.359Z,9.06
2017-12-20T05:57:28.714Z,9.22
2017-12-20T05:59:57.048Z,9.39
2017-12-20T06:02:26.776Z,9.54
2017-12-20T06:07:29.495Z,9.51
2017-12-20T06:09:57.842Z,9.35
2017-12-20T06:12:26.215Z,9.28
2017-12-20T06:14:54.634Z,9.11
2017-12-20T06:17:22.948Z,9.06
2017-12-20T06:19:51.309Z,9.07
2017-12-20T06:22:19.718Z,9.11
2017-12-20T06:25:01.552Z,9.31
2017-12-20T06:27:29.966Z,9.37
2017-12-20T06:29:58.339Z,9.32
2017-12-20T06:32:26.724Z,9.19
2017-12-20T06:34:55.123Z,9.10
2017-12-20T06:37:23.533Z,9.03
2017-12-20T06:40:03.793Z,8.94
2017-12-20T06:42:32.900Z,8.81
2017-12-20T06:45:01.322Z,8.88
2017-12-20T06:47:29.688Z,8.76
2017-12-20T06:49:58.027Z,8.86
2017-12-20T06:52:27.207Z,8.94
2017-12-20T06:54:56.357Z,9.03
2017-12-20T06:57:24.714Z,9.03
2017-12-20T06:59:53.087Z,8.89
2017-12-20T07:02:21.813Z,8.66
2017-12-20T07:04:50.169Z,8.84
2017-12-20T07:07:18.560Z,8.64
2017-12-20T07:09:46.966Z,8.64
2017-12-20T07:12:15.353Z,8.78
2017-12-20T07:14:43.701Z,8.91
2017-12-20T07:17:12.517Z,8.72
2017-12-20T07:19:40.951Z,8.88
2017-12-20T07:22:09.316Z,9.18
2017-12-20T07:24:37.916Z,9.20
2017-12-20T07:27:06.315Z,9.10
2017-12-20T07:29:34.642Z,8.98
2017-12-20T07:32:03.017Z,8.84
2017-12-20T07:34:31.388Z,8.89
2017-12-20T07:36:59.757Z,8.95
2017-12-20T07:39:28.125Z,9.14
2017-12-20T07:41:56.468Z,9.13
2017-12-20T07:44:24.859Z,9.08
2017-12-20T07:46:53.499Z,9.01
2017-12-20T07:49:21.870Z,8.74
2017-12-20T07:51:50.263Z,8.78
2017-12-20T07:54:18.630Z,8.95
2017-12-20T07:56:46.966Z,8.92
2017-12-20T07:59:15.289Z,8.91
2017-12-20T08:01:43.631Z,8.80
2017-12-20T08:04:12.031Z,8.74
2017-12-20T08:06:40.452Z,8.64
2017-12-20T08:09:09.528Z,8.93
2017-12-20T08:11:37.957Z,8.95
2017-12-20T08:14:06.342Z,8.93
2017-12-20T08:16:34.721Z,8.73
2017-12-20T08:19:03.106Z,8.81
2017-12-20T08:21:31.442Z,8.89
2017-12-20T08:24:00.623Z,8.81
2017-12-20T08:26:34.617Z,8.99
2017-12-20T08:32:00.528Z,9.41
2017-12-20T08:34:28.870Z,9.48
2017-12-20T08:36:57.221Z,9.54
2017-12-20T08:39:26.065Z,9.44
2017-12-20T08:41:54.434Z,9.25
2017-12-20T08:44:22.843Z,9.09
2017-12-20T08:46:51.674Z,9.22
2017-12-20T08:49:20.136Z,9.10
2017-12-20T08:51:48.473Z,9.14
2017-12-20T08:54:17.463Z,8.96
2017-12-20T08:56:45.772Z,9.09
2017-12-20T08:59:14.084Z,9.14
2017-12-20T09:01:42.534Z,8.92
2017-12-20T09:04:10.922Z,8.65
2017-12-20T09:06:39.288Z,8.81
2017-12-20T09:09:07.672Z,8.72
2017-12-20T09:11:36.030Z,8.87
2017-12-20T09:14:04.352Z,8.83
2017-12-20T09:16:33.045Z,9.18
2017-12-20T09:19:01.438Z,9.09
2017-12-20T09:21:30.587Z,9.34
2017-12-20T09:23:58.974Z,9.18
2017-12-20T09:26:27.314Z,9.10
2017-12-20T09:28:56.049Z,9.15
2017-12-20T09:31:24.471Z,9.11
2017-12-20T09:33:53.605Z,9.10
2017-12-20T09:36:21.979Z,9.09
2017-12-20T09:38:50.567Z,9.16
2017-12-20T09:41:18.887Z,9.08
2017-12-20T09:43:47.208Z,9.19
2017-12-20T09:46:15.563Z,9.35
2017-12-20T09:48:43.935Z,9.35
2017-12-20T09:51:13.027Z,9.11
2017-12-20T09:53:41.376Z,9.06
2017-12-20T09:56:37.846Z,9.10
2017-12-20T09:59:06.697Z,9.14
2017-12-20T10:01:35.085Z,9.28
2017-12-20T10:04:03.462Z,9.27
2017-12-20T10:06:31.854Z,9.29
2017-12-20T10:09:00.237Z,9.44
2017-12-20T10:11:28.667Z,9.58
2017-12-20T10:13:57.012Z,9.59
2017-12-20T10:16:26.133Z,9.63
2017-12-20T10:18:54.481Z,9.54
2017-12-20T10:21:23.916Z,9.69
2017-12-20T10:23:52.273Z,9.70
2017-12-20T10:26:21.391Z,9.97
2017-12-20T10:28:49.771Z,10.07
2017-12-20T10:31:18.129Z,10.09
2017-12-20T10:33:47.238Z,10.13
2017-12-20T10:36:16.380Z,10.24
2017-12-20T10:38:44.756Z,9.73
2017-12-20T10:41:13.122Z,9.68
2017-12-20T10:43:41.580Z,9.87
2017-12-20T10:46:09.914Z,10.14
2017-12-20T10:48:38.284Z,10.24
2017-12-20T10:51:06.668Z,10.23
2017-12-20T10:53:35.030Z,10.03
2017-12-20T10:56:03.391Z,10.37
2017-12-20T10:58:31.782Z,10.04
2017-12-20T11:01:00.174Z,10.42
2017-12-20T11:03:36.606Z,10.68
2017-12-20T11:06:04.914Z,10.86
2017-12-20T11:08:33.238Z,10.77
2017-12-20T11:11:01.614Z,10.61
2017-12-20T11:13:29.954Z,10.91
2017-12-20T11:15:58.342Z,10.94
2017-12-20T11:18:26.743Z,10.95
2017-12-20T11:20:55.132Z,10.76
2017-12-20T11:23:24.205Z,10.42
2017-12-20T11:25:53.019Z,10.54
2017-12-20T11:28:21.601Z,10.93
2017-12-20T11:30:50.719Z,11.32
2017-12-20T11:33:19.896Z,11.24
2017-12-20T11:35:49.044Z,11.04
2017-12-20T11:38:17.441Z,11.30
2017-12-20T11:40:45.852Z,11.34
2017-12-20T11:43:14.963Z,11.36
2017-12-20T11:45:44.069Z,11.51
2017-12-20T11:48:12.545Z,11.42
2017-12-20T11:50:41.640Z,11.02
2017-12-20T11:53:10.729Z,11.43
2017-12-20T11:55:39.865Z,11.73
2017-12-20T11:58:08.211Z,11.30
2017-12-20T12:00:36.544Z,11.38
2017-12-20T12:03:04.896Z,11.42
2017-12-20T12:05:33.288Z,11.04
2017-12-20T12:08:01.657Z,11.33
2017-12-20T12:10:30.606Z,11.46
2017-12-20T12:12:59.748Z,11.56
2017-12-20T12:15:28.105Z,11.54
2017-12-20T12:17:56.466Z,11.40
2017-12-20T12:20:24.872Z,11.11
2017-12-20T12:22:53.234Z,11.21
2017-12-20T12:25:22.371Z,10.93
2017-12-20T12:27:50.714Z,10.66
2017-12-20T12:30:19.111Z,10.74
2017-12-20T12:32:47.786Z,10.71
2017-12-20T12:35:16.125Z,10.59
2017-12-20T12:37:44.494Z,10.90
2017-12-20T12:40:12.866Z,11.08
2017-12-20T12:42:41.964Z,10.42
2017-12-20T12:45:11.056Z,10.38
2017-12-20T12:47:39.426Z,10.66
2017-12-20T12:50:08.554Z,10.85
2017-12-20T12:52:36.900Z,10.92
2017-12-20T12:55:06.394Z,10.96
2017-12-20T12:57:34.783Z,10.63
2017-12-20T13:00:03.114Z,10.81
2017-12-20T13:02:31.514Z,10.79
2017-12-20T13:04:59.924Z,11.02
2017-12-20T13:07:28.300Z,10.87
2017-12-20T13:09:56.642Z,10.97
2017-12-20T13:12:25.031Z,10.55
2017-12-20T13:14:53.382Z,10.37
2017-12-20T13:17:21.823Z,10.49
2017-12-20T13:19:50.191Z,10.77
2017-12-20T13:22:18.507Z,10.98
2017-12-20T13:24:47.707Z,10.99
2017-12-20T13:27:16.044Z,10.91
2017-12-20T13:29:44.448Z,10.96
2017-12-20T13:32:12.842Z,10.98
2017-12-20T13:34:41.223Z,10.95
2017-12-20T13:37:09.614Z,10.84
2017-12-20T13:39:38.092Z,11.02
2017-12-20T13:42:06.482Z,10.96
2017-12-20T13:44:34.823Z,10.84
2017-12-20T13:47:04.026Z,10.68
2017-12-20T13:49:32.448Z,10.60
2017-12-20T13:52:00.826Z,10.69
2017-12-20T13:54:29.223Z,10.94
2017-12-20T13:56:57.550Z,10.89
2017-12-20T13:59:25.909Z,10.87
2017-12-20T14:01:54.669Z,10.87
2017-12-20T14:04:23.026Z,10.93
2017-12-20T14:06:52.122Z,10.74
2017-12-20T14:09:20.494Z,10.49
2017-12-20T14:12:09.385Z,10.75
2017-12-20T14:14:37.737Z,10.74
2017-12-20T14:17:06.891Z,10.63
2017-12-20T14:19:35.216Z,10.48
2017-12-20T14:22:03.683Z,10.32
2017-12-20T14:24:32.048Z,10.47
2017-12-20T14:27:01.190Z,10.17
2017-12-20T14:29:29.605Z,10.31
2017-12-20T14:31:57.941Z,10.46
2017-12-20T14:34:26.306Z,10.63
2017-12-20T14:36:54.675Z,10.40
2017-12-20T14:39:23.031Z,10.65
2017-12-20T14:41:51.420Z,10.41
2017-12-20T14:44:19.902Z,10.51
2017-12-20T14:46:48.296Z,10.58
2017-12-20T14:49:16.647Z,10.04
2017-12-20T14:51:45.023Z,10.12
2017-12-20T14:54:13.356Z,10.03
2017-12-20T14:56:41.701Z,9.83
2017-12-20T14:59:10.079Z,10.10
2017-12-20T15:01:38.433Z,10.20
2017-12-20T15:04:06.755Z,9.99
2017-12-20T15:06:46.809Z,9.98
2017-12-20T15:09:15.939Z,9.90
2017-12-20T15:11:44.308Z,10.04
2017-12-20T15:14:12.706Z,10.22
2017-12-20T15:16:41.083Z,10.55
2017-12-20T15:19:09.456Z,10.15
2017-12-20T15:21:37.841Z,10.09
2017-12-20T15:24:06.349Z,10.32
2017-12-20T15:26:34.683Z,10.06
2017-12-20T15:29:03.364Z,10.12
2017-12-20T15:31:31.719Z,10.17
2017-12-20T15:34:00.057Z,10.31
2017-12-20T15:36:28.430Z,10.48
2017-12-20T15:38:56.774Z,10.77
2017-12-20T15:41:25.894Z,10.96
2017-12-20T15:43:54.255Z,10.60
2017-12-20T15:46:22.636Z,10.78
2017-12-20T15:48:51.721Z,10.82
2017-12-20T15:51:21.137Z,10.50
2017-12-20T15:53:49.464Z,10.59
2017-12-20T15:56:22.654Z,10.60
2017-12-20T15:58:51.448Z,10.63
2017-12-20T16:01:19.802Z,10.64
2017-12-20T16:03:48.140Z,10.50
2017-12-20T16:06:17.329Z,10.65
2017-12-20T16:08:46.454Z,10.62
2017-12-20T16:11:14.833Z,10.55
2017-12-20T16:13:43.444Z,10.26
2017-12-20T16:16:11.786Z,10.30
2017-12-20T16:18:40.863Z,10.30
2017-12-20T16:21:09.271Z,10.29
2017-12-20T16:23:37.599Z,9.95
2017-12-20T16:26:05.953Z,9.94
2017-12-20T16:28:34.387Z,10.02
2017-12-20T16:31:03.481Z,10.14
2017-12-20T16:33:31.849Z,10.29
2017-12-20T16:36:00.402Z,10.18
2017-12-20T16:38:28.781Z,10.33
2017-12-20T16:40:57.113Z,10.30
2017-12-20T16:43:25.472Z,10.44
2017-12-20T16:45:53.824Z,10.43
2017-12-20T16:48:22.190Z,10.46
2017-12-20T16:50:50.565Z,10.57
2017-12-20T16:53:36.620Z,10.57
2017-12-20T16:56:05.944Z,10.61
2017-12-20T16:58:34.283Z,10.88
2017-12-20T17:01:02.617Z,10.88
2017-12-20T17:03:31.023Z,10.64
2017-12-20T17:05:59.391Z,10.80
2017-12-20T17:08:28.525Z,10.78
2017-12-20T17:10:56.887Z,10.72
2017-12-20T17:13:25.240Z,10.97
2017-12-20T17:15:53.611Z,10.77
2017-12-20T17:18:22.361Z,10.60
2017-12-20T17:20:51.457Z,10.67
2017-12-20T17:23:19.831Z,10.84
2017-12-20T17:25:48.998Z,11.02
2017-12-20T17:28:17.350Z,11.03
2017-12-20T17:30:45.689Z,10.90
2017-12-20T17:33:14.839Z,10.77
2017-12-20T17:35:43.169Z,10.97
2017-12-20T17:38:11.497Z,10.84
2017-12-20T17:40:40.009Z,10.91
2017-12-20T17:43:08.365Z,10.91
2017-12-20T17:45:36.735Z,11.16
2017-12-20T17:48:05.136Z,11.17
2017-12-20T17:50:33.516Z,10.94
2017-12-20T17:53:01.890Z,10.97
2017-12-20T17:55:30.351Z,11.02
2017-12-20T17:57:58.683Z,11.19
2017-12-20T18:00:27.078Z,11.12
2017-12-20T18:02:55.817Z,11.03
2017-12-20T18:05:25.723Z,11.02
2017-12-20T18:07:54.238Z,10.98
2017-12-20T18:10:23.498Z,10.96
2017-12-20T18:12:51.902Z,11.04
2017-12-20T18:15:20.253Z,10.89
2017-12-20T18:17:48.659Z,10.85
2017-12-20T18:20:17.009Z,10.58
2017-12-20T18:22:45.377Z,10.74
2017-12-20T18:25:13.966Z,10.80
2017-12-20T18:27:42.341Z,10.75
2017-12-20T18:30:10.702Z,10.64
2017-12-20T18:32:39.074Z,10.45
2017-12-20T18:35:07.412Z,10.58
2017-12-20T18:37:35.770Z,10.79
2017-12-20T18:40:06.133Z,10.74
2017-12-20T18:42:34.502Z,10.91
2017-12-20T18:45:02.933Z,10.99
2017-12-20T18:47:32.756Z,10.93
2017-12-20T18:50:01.102Z,10.98
2017-12-20T18:52:29.481Z,10.96
2017-12-20T18:54:58.627Z,11.11
2017-12-20T18:57:26.940Z,11.05
2017-12-20T18:59:55.273Z,11.08
2017-12-20T19:02:23.655Z,11.02
2017-12-20T19:04:52.037Z,10.91
2017-12-20T19:07:20.389Z,11.04
2017-12-20T19:09:49.170Z,11.05
2017-12-20T19:12:17.553Z,11.06
2017-12-20T19:14:45.934Z,10.97
2017-12-20T19:17:14.347Z,10.84
2017-12-20T19:19:42.745Z,10.79
2017-12-20T19:22:17.034Z,10.85
2017-12-20T19:24:45.427Z,10.78
2017-12-20T19:27:14.550Z,10.71
2017-12-20T19:29:43.274Z,10.80
2017-12-20T19:32:12.399Z,10.73
2017-12-20T19:34:40.754Z,10.73
2017-12-20T19:37:09.876Z,10.83
2017-12-20T19:39:38.258Z,11.06
2017-12-20T19:42:06.600Z,10.95
2017-12-20T19:44:35.765Z,11.02
2017-12-20T19:47:04.107Z,11.20
2017-12-20T19:49:32.491Z,11.24
2017-12-20T19:52:01.206Z,11.16
2017-12-20T19:54:29.603Z,10.89
2017-12-20T19:56:57.956Z,11.07
2017-12-20T19:59:26.332Z,11.03
2017-12-20T20:01:54.730Z,11.16
2017-12-20T20:04:23.093Z,11.19
2017-12-20T20:06:51.463Z,10.97
2017-12-20T20:09:20.593Z,10.97
2017-12-20T20:11:49.021Z,10.53
2017-12-20T20:14:17.640Z,10.52
2017-12-20T20:16:45.999Z,10.65
2017-12-20T20:19:14.993Z,10.51
2017-12-20T20:21:44.230Z,10.61
2017-12-20T20:24:12.716Z,10.78
2017-12-20T20:26:41.125Z,10.62
2017-12-20T20:29:09.567Z,10.62
2017-12-20T20:31:37.984Z,10.73
2017-12-20T20:34:06.366Z,10.42
2017-12-20T20:36:34.814Z,10.57
2017-12-20T20:39:03.297Z,10.55
2017-12-20T20:41:31.678Z,10.44
2017-12-20T20:44:00.103Z,10.54
2017-12-20T20:46:28.429Z,10.71
2017-12-20T20:48:56.839Z,10.73
2017-12-20T20:51:26.011Z,10.82
2017-12-20T20:53:54.737Z,10.73
2017-12-20T20:56:23.070Z,10.82
2017-12-20T20:58:51.713Z,10.70
2017-12-20T21:01:20.054Z,10.82
2017-12-20T21:03:48.463Z,10.72
2017-12-20T21:06:16.879Z,10.68
2017-12-20T21:08:45.989Z,10.72
2017-12-20T21:11:14.390Z,10.56
2017-12-20T21:13:42.766Z,10.67
2017-12-20T21:16:11.746Z,10.60
2017-12-20T21:18:40.205Z,10.60
2017-12-20T21:21:08.681Z,10.55
2017-12-20T21:23:37.825Z,10.79
2017-12-20T21:26:06.978Z,10.78
2017-12-20T21:28:35.375Z,10.67
2017-12-20T21:31:03.702Z,10.62
2017-12-20T21:33:32.013Z,10.66
2017-12-20T21:36:00.384Z,10.64
2017-12-20T21:38:28.790Z,10.65
2017-12-20T21:40:57.170Z,10.62
2017-12-20T21:43:25.622Z,10.46
2017-12-20T21:45:53.966Z,10.61
2017-12-20T21:48:23.203Z,10.42
2017-12-20T21:50:51.608Z,10.58
2017-12-20T21:53:19.998Z,10.40
2017-12-20T21:55:48.324Z,10.55
2017-12-20T21:58:16.715Z,10.49
2017-12-20T22:00:45.048Z,10.55
2017-12-20T22:03:13.507Z,10.55
2017-12-20T22:05:42.195Z,10.57
2017-12-20T22:08:10.574Z,10.39
2017-12-20T22:10:38.914Z,10.26
2017-12-20T22:13:08.353Z,10.17
2017-12-20T22:15:36.707Z,10.27
2017-12-20T22:18:05.080Z,10.43
2017-12-20T22:20:33.485Z,10.46
2017-12-20T22:23:01.841Z,10.52
2017-12-20T22:25:30.219Z,10.51
2017-12-20T22:27:58.894Z,10.36
2017-12-20T22:30:27.246Z,10.33
2017-12-20T22:32:55.584Z,10.25
2017-12-20T22:35:24.742Z,10.22
2017-12-20T22:37:53.284Z,10.47
2017-12-20T22:40:21.603Z,10.64
2017-12-20T22:42:50.045Z,10.56
2017-12-20T22:45:18.397Z,10.43
2017-12-20T22:47:46.747Z,10.25
2017-12-20T22:50:15.386Z,10.50
2017-12-20T22:52:43.742Z,10.56
2017-12-20T22:55:12.129Z,10.63
2017-12-20T22:57:40.557Z,10.72
2017-12-20T23:00:09.688Z,10.52
2017-12-20T23:02:38.026Z,10.69
2017-12-20T23:05:07.221Z,10.68
2017-12-20T23:07:35.626Z,10.57
2017-12-20T23:10:03.957Z,10.38
2017-12-20T23:12:33.716Z,10.51
2017-12-20T23:15:02.071Z,10.56
2017-12-20T23:17:31.184Z,10.55
2017-12-20T23:20:00.314Z,10.39
2017-12-20T23:22:28.674Z,10.27
2017-12-20T23:24:57.033Z,10.57
2017-12-20T23:27:26.133Z,10.66
2017-12-20T23:29:55.240Z,10.64
2017-12-20T23:32:23.611Z,10.62
2017-12-20T23:34:55.824Z,10.48
2017-12-20T23:37:24.183Z,10.54
2017-12-20T23:39:52.584Z,10.53
2017-12-20T23:42:20.954Z,10.62
2017-12-20T23:44:49.294Z,10.84
2017-12-20T23:47:17.663Z,10.82
2017-12-20T23:49:47.630Z,10.94
2017-12-20T23:52:15.942Z,10.72
2017-12-20T23:54:44.285Z,10.62
2017-12-20T23:57:13.008Z,10.63
2017-12-20T23:59:41.351Z,10.75
